sensor_id;sensor_type;location;lat;lon;timestamp;pressure;altitude;pressure_sealevel;temperature;humidity
11395;BME280;5753;54.402;10.220;2023-05-08T00:00:28;102644.44;;;19.65;38.14
11395;BME280;5753;54.402;10.220;2023-05-08T00:02:54;102650.63;;;19.78;37.92
11395;BME280;5753;54.402;10.220;2023-05-08T00:05:20;102651.34;;;19.57;38.40
11395;BME280;5753;54.402;10.220;2023-05-08T00:07:46;102653.00;;;19.49;38.47
11395;BME280;5753;54.402;10.220;2023-05-08T00:10:13;102654.88;;;19.61;38.14
11395;BME280;5753;54.402;10.220;2023-05-08T00:12:39;102648.66;;;19.49;38.68
11395;BME280;5753;54.402;10.220;2023-05-08T00:15:06;102650.47;;;19.54;38.35
11395;BME280;5753;54.402;10.220;2023-05-08T00:17:32;102648.84;;;19.74;37.98
11395;BME280;5753;54.402;10.220;2023-05-08T00:19:58;102652.97;;;19.44;38.51
11395;BME280;5753;54.402;10.220;2023-05-08T00:22:24;102649.16;;;19.09;39.25
11395;BME280;5753;54.402;10.220;2023-05-08T00:24:50;102646.00;;;19.43;38.64
11395;BME280;5753;54.402;10.220;2023-05-08T00:27:17;102650.78;;;18.95;39.81
11395;BME280;5753;54.402;10.220;2023-05-08T00:29:43;102652.41;;;19.84;38.30
11395;BME280;5753;54.402;10.220;2023-05-08T00:32:09;102656.75;;;19.80;38.49
11395;BME280;5753;54.402;10.220;2023-05-08T00:34:35;102647.00;;;19.56;38.59
11395;BME280;5753;54.402;10.220;2023-05-08T00:37:01;102646.88;;;19.44;38.99
11395;BME280;5753;54.402;10.220;2023-05-08T00:39:28;102656.66;;;19.68;38.72
11395;BME280;5753;54.402;10.220;2023-05-08T00:41:54;102654.69;;;19.39;38.94
11395;BME280;5753;54.402;10.220;2023-05-08T00:44:20;102656.44;;;19.40;39.04
11395;BME280;5753;54.402;10.220;2023-05-08T00:46:47;102651.19;;;19.40;39.00
11395;BME280;5753;54.402;10.220;2023-05-08T00:49:13;102665.41;;;19.73;38.50
11395;BME280;5753;54.402;10.220;2023-05-08T00:51:42;102661.00;;;19.66;38.52
11395;BME280;5753;54.402;10.220;2023-05-08T00:54:09;102651.25;;;19.46;38.69
11395;BME280;5753;54.402;10.220;2023-05-08T00:56:36;102669.81;;;19.80;38.20
11395;BME280;5753;54.402;10.220;2023-05-08T00:59:05;102662.56;;;19.45;38.93
11395;BME280;5753;54.402;10.220;2023-05-08T01:01:35;102661.69;;;19.43;39.01
11395;BME280;5753;54.402;10.220;2023-05-08T01:04:02;102661.41;;;19.13;39.75
11395;BME280;5753;54.402;10.220;2023-05-08T01:06:29;102660.69;;;19.32;39.31
11395;BME280;5753;54.402;10.220;2023-05-08T01:08:55;102667.03;;;19.56;39.03
11395;BME280;5753;54.402;10.220;2023-05-08T01:11:30;102665.03;;;19.30;39.44
11395;BME280;5753;54.402;10.220;2023-05-08T01:14:20;102655.72;;;19.57;38.72
11395;BME280;5753;54.402;10.220;2023-05-08T01:17:11;102654.50;;;19.23;39.41
11395;BME280;5753;54.402;10.220;2023-05-08T01:19:53;102659.91;;;19.39;39.18
11395;BME280;5753;54.402;10.220;2023-05-08T01:33:47;102672.06;;;18.57;40.82
11395;BME280;5753;54.402;10.220;2023-05-08T01:41:40;102667.59;;;19.23;39.37
11395;BME280;5753;54.402;10.220;2023-05-08T01:44:20;102671.34;;;18.67;40.61
11395;BME280;5753;54.402;10.220;2023-05-08T01:46:50;102674.72;;;18.60;40.94
11395;BME280;5753;54.402;10.220;2023-05-08T01:49:22;102673.50;;;19.05;39.93
11395;BME280;5753;54.402;10.220;2023-05-08T01:51:56;102671.78;;;19.07;39.94
11395;BME280;5753;54.402;10.220;2023-05-08T01:54:27;102680.22;;;18.81;40.58
11395;BME280;5753;54.402;10.220;2023-05-08T01:56:55;102680.97;;;18.70;40.79
11395;BME280;5753;54.402;10.220;2023-05-08T01:59:24;102692.31;;;18.73;40.57
11395;BME280;5753;54.402;10.220;2023-05-08T02:01:56;102686.41;;;18.90;40.56
11395;BME280;5753;54.402;10.220;2023-05-08T02:04:24;102692.91;;;18.52;41.02
11395;BME280;5753;54.402;10.220;2023-05-08T02:06:51;102694.50;;;19.14;39.89
11395;BME280;5753;54.402;10.220;2023-05-08T02:09:19;102693.16;;;18.69;40.82
11395;BME280;5753;54.402;10.220;2023-05-08T02:11:48;102687.00;;;18.66;41.06
11395;BME280;5753;54.402;10.220;2023-05-08T02:14:18;102687.16;;;18.79;40.43
11395;BME280;5753;54.402;10.220;2023-05-08T02:16:46;102688.16;;;18.91;40.66
11395;BME280;5753;54.402;10.220;2023-05-08T02:19:14;102692.50;;;18.92;40.45
11395;BME280;5753;54.402;10.220;2023-05-08T02:21:43;102691.16;;;18.51;41.21
11395;BME280;5753;54.402;10.220;2023-05-08T02:24:09;102681.63;;;17.94;42.28
11395;BME280;5753;54.402;10.220;2023-05-08T02:26:40;102689.66;;;18.69;41.00
11395;BME280;5753;54.402;10.220;2023-05-08T02:29:08;102685.06;;;17.90;42.25
11395;BME280;5753;54.402;10.220;2023-05-08T02:31:36;102687.38;;;18.30;41.27
11395;BME280;5753;54.402;10.220;2023-05-08T02:34:04;102687.06;;;18.70;40.61
11395;BME280;5753;54.402;10.220;2023-05-08T02:36:31;102686.84;;;18.55;40.89
11395;BME280;5753;54.402;10.220;2023-05-08T02:38:59;102684.00;;;18.38;41.23
11395;BME280;5753;54.402;10.220;2023-05-08T02:41:29;102683.28;;;18.47;40.94
11395;BME280;5753;54.402;10.220;2023-05-08T02:43:57;102684.72;;;18.27;41.40
11395;BME280;5753;54.402;10.220;2023-05-08T02:46:30;102689.06;;;18.26;41.23
11395;BME280;5753;54.402;10.220;2023-05-08T02:49:06;102684.75;;;18.30;40.85
11395;BME280;5753;54.402;10.220;2023-05-08T02:51:38;102684.88;;;17.78;42.41
11395;BME280;5753;54.402;10.220;2023-05-08T02:54:23;102688.06;;;18.16;41.44
11395;BME280;5753;54.402;10.220;2023-05-08T02:59:50;102681.66;;;17.96;41.84
11395;BME280;5753;54.402;10.220;2023-05-08T03:02:48;102677.16;;;17.86;42.54
11395;BME280;5753;54.402;10.220;2023-05-08T03:05:36;102677.81;;;17.23;44.46
11395;BME280;5753;54.402;10.220;2023-05-08T03:08:06;102678.34;;;17.04;44.41
11395;BME280;5753;54.402;10.220;2023-05-08T03:10:35;102679.72;;;16.06;47.05
11395;BME280;5753;54.402;10.220;2023-05-08T03:13:03;102678.03;;;17.35;43.62
11395;BME280;5753;54.402;10.220;2023-05-08T03:15:36;102683.69;;;16.66;45.55
11395;BME280;5753;54.402;10.220;2023-05-08T03:18:10;102675.84;;;17.59;43.55
11395;BME280;5753;54.402;10.220;2023-05-08T03:20:40;102667.47;;;17.77;42.94
11395;BME280;5753;54.402;10.220;2023-05-08T03:23:08;102666.00;;;17.96;42.41
11395;BME280;5753;54.402;10.220;2023-05-08T03:25:36;102668.69;;;17.99;42.12
11395;BME280;5753;54.402;10.220;2023-05-08T03:28:05;102670.22;;;17.86;42.24
11395;BME280;5753;54.402;10.220;2023-05-08T03:30:34;102659.66;;;17.27;43.59
11395;BME280;5753;54.402;10.220;2023-05-08T03:33:05;102658.38;;;18.08;41.90
11395;BME280;5753;54.402;10.220;2023-05-08T03:35:35;102655.63;;;17.46;43.10
11395;BME280;5753;54.402;10.220;2023-05-08T03:38:03;102661.16;;;17.13;43.96
11395;BME280;5753;54.402;10.220;2023-05-08T03:40:29;102661.34;;;17.75;42.39
11395;BME280;5753;54.402;10.220;2023-05-08T03:42:55;102648.72;;;17.48;43.24
11395;BME280;5753;54.402;10.220;2023-05-08T03:45:24;102647.25;;;17.13;43.97
11395;BME280;5753;54.402;10.220;2023-05-08T03:47:51;102651.72;;;17.20;43.87
11395;BME280;5753;54.402;10.220;2023-05-08T03:50:18;102646.66;;;17.82;42.39
11395;BME280;5753;54.402;10.220;2023-05-08T03:52:45;102647.97;;;17.55;42.65
11395;BME280;5753;54.402;10.220;2023-05-08T03:55:11;102653.06;;;18.02;41.81
11395;BME280;5753;54.402;10.220;2023-05-08T04:00:36;102652.53;;;17.17;43.29
11395;BME280;5753;54.402;10.220;2023-05-08T04:06:14;102648.78;;;17.51;43.00
11395;BME280;5753;54.402;10.220;2023-05-08T04:08:47;102642.78;;;17.06;43.45
11395;BME280;5753;54.402;10.220;2023-05-08T04:11:24;102649.72;;;17.56;42.96
11395;BME280;5753;54.402;10.220;2023-05-08T04:13:59;102641.88;;;17.53;42.71
11395;BME280;5753;54.402;10.220;2023-05-08T04:16:27;102648.44;;;17.84;42.00
11395;BME280;5753;54.402;10.220;2023-05-08T04:19:02;102642.00;;;17.62;42.54
11395;BME280;5753;54.402;10.220;2023-05-08T04:21:34;102640.78;;;17.97;42.00
11395;BME280;5753;54.402;10.220;2023-05-08T04:24:00;102641.22;;;17.15;43.71
11395;BME280;5753;54.402;10.220;2023-05-08T04:26:28;102637.19;;;17.88;42.47
11395;BME280;5753;54.402;10.220;2023-05-08T04:28:56;102636.69;;;17.56;43.24
11395;BME280;5753;54.402;10.220;2023-05-08T04:31:24;102649.25;;;17.27;43.66
11395;BME280;5753;54.402;10.220;2023-05-08T04:33:50;102652.09;;;17.96;42.23
11395;BME280;5753;54.402;10.220;2023-05-08T04:36:16;102651.84;;;17.79;42.63
11395;BME280;5753;54.402;10.220;2023-05-08T04:38:43;102650.19;;;18.47;41.15
11395;BME280;5753;54.402;10.220;2023-05-08T04:41:09;102646.28;;;17.57;42.96
11395;BME280;5753;54.402;10.220;2023-05-08T04:43:35;102642.31;;;17.29;43.86
11395;BME280;5753;54.402;10.220;2023-05-08T04:46:03;102652.84;;;17.87;42.62
11395;BME280;5753;54.402;10.220;2023-05-08T04:48:30;102649.13;;;17.71;43.07
11395;BME280;5753;54.402;10.220;2023-05-08T04:50:58;102646.84;;;17.41;43.59
11395;BME280;5753;54.402;10.220;2023-05-08T04:53:25;102648.06;;;17.60;43.69
11395;BME280;5753;54.402;10.220;2023-05-08T04:55:52;102649.69;;;18.09;42.18
11395;BME280;5753;54.402;10.220;2023-05-08T04:58:18;102662.75;;;18.76;41.58
11395;BME280;5753;54.402;10.220;2023-05-08T05:00:44;102659.63;;;19.09;40.59
11395;BME280;5753;54.402;10.220;2023-05-08T05:03:10;102661.41;;;19.16;40.50
11395;BME280;5753;54.402;10.220;2023-05-08T05:05:36;102657.53;;;18.77;41.30
11395;BME280;5753;54.402;10.220;2023-05-08T05:08:02;102655.66;;;19.52;40.08
11395;BME280;5753;54.402;10.220;2023-05-08T05:10:29;102663.31;;;19.32;40.02
11395;BME280;5753;54.402;10.220;2023-05-08T05:12:55;102669.47;;;19.39;40.27
11395;BME280;5753;54.402;10.220;2023-05-08T05:15:21;102668.34;;;20.25;38.50
11395;BME280;5753;54.402;10.220;2023-05-08T05:17:47;102662.28;;;18.41;41.61
11395;BME280;5753;54.402;10.220;2023-05-08T05:20:14;102664.47;;;19.62;39.78
11395;BME280;5753;54.402;10.220;2023-05-08T05:22:40;102669.66;;;19.56;39.30
11395;BME280;5753;54.402;10.220;2023-05-08T05:25:06;102665.63;;;20.03;38.30
11395;BME280;5753;54.402;10.220;2023-05-08T05:27:36;102659.84;;;19.36;38.95
11395;BME280;5753;54.402;10.220;2023-05-08T05:30:02;102657.38;;;19.50;39.04
11395;BME280;5753;54.402;10.220;2023-05-08T05:32:28;102664.53;;;18.81;40.18
11395;BME280;5753;54.402;10.220;2023-05-08T05:34:55;102666.44;;;18.95;39.53
11395;BME280;5753;54.402;10.220;2023-05-08T05:37:21;102662.41;;;19.29;38.79
11395;BME280;5753;54.402;10.220;2023-05-08T05:39:48;102670.72;;;18.88;39.98
11395;BME280;5753;54.402;10.220;2023-05-08T05:42:14;102668.78;;;19.54;38.73
11395;BME280;5753;54.402;10.220;2023-05-08T05:44:40;102664.31;;;19.46;38.50
11395;BME280;5753;54.402;10.220;2023-05-08T05:47:07;102674.38;;;20.05;37.93
11395;BME280;5753;54.402;10.220;2023-05-08T05:49:35;102666.66;;;19.16;39.23
11395;BME280;5753;54.402;10.220;2023-05-08T05:52:01;102676.16;;;20.12;37.03
11395;BME280;5753;54.402;10.220;2023-05-08T05:54:27;102672.59;;;20.01;37.98
11395;BME280;5753;54.402;10.220;2023-05-08T05:56:53;102677.16;;;20.36;36.99
11395;BME280;5753;54.402;10.220;2023-05-08T05:59:19;102678.28;;;18.64;39.17
11395;BME280;5753;54.402;10.220;2023-05-08T06:01:45;102677.25;;;17.92;40.93
11395;BME280;5753;54.402;10.220;2023-05-08T06:04:12;102673.75;;;18.50;40.22
11395;BME280;5753;54.402;10.220;2023-05-08T06:06:38;102672.88;;;19.30;38.55
11395;BME280;5753;54.402;10.220;2023-05-08T06:09:04;102669.53;;;19.43;37.79
11395;BME280;5753;54.402;10.220;2023-05-08T06:11:31;102673.09;;;18.03;40.43
11395;BME280;5753;54.402;10.220;2023-05-08T06:13:57;102677.28;;;20.59;36.31
11395;BME280;5753;54.402;10.220;2023-05-08T06:16:24;102678.63;;;18.93;38.11
11395;BME280;5753;54.402;10.220;2023-05-08T06:18:50;102672.81;;;18.47;39.30
11395;BME280;5753;54.402;10.220;2023-05-08T06:21:16;102669.78;;;18.84;39.14
11395;BME280;5753;54.402;10.220;2023-05-08T06:23:42;102672.63;;;20.04;36.89
11395;BME280;5753;54.402;10.220;2023-05-08T06:26:09;102674.25;;;19.87;37.22
11395;BME280;5753;54.402;10.220;2023-05-08T06:28:35;102678.44;;;19.64;37.43
11395;BME280;5753;54.402;10.220;2023-05-08T06:31:01;102680.28;;;19.77;37.25
11395;BME280;5753;54.402;10.220;2023-05-08T06:33:27;102677.84;;;20.01;37.00
11395;BME280;5753;54.402;10.220;2023-05-08T06:35:53;102671.06;;;20.37;36.11
11395;BME280;5753;54.402;10.220;2023-05-08T06:38:19;102666.22;;;19.64;37.86
11395;BME280;5753;54.402;10.220;2023-05-08T06:40:46;102681.34;;;20.03;37.21
11395;BME280;5753;54.402;10.220;2023-05-08T06:43:13;102665.19;;;21.00;35.05
11395;BME280;5753;54.402;10.220;2023-05-08T06:45:39;102675.34;;;20.27;36.40
11395;BME280;5753;54.402;10.220;2023-05-08T06:48:05;102672.56;;;19.92;36.79
11395;BME280;5753;54.402;10.220;2023-05-08T06:50:32;102664.38;;;21.43;34.83
11395;BME280;5753;54.402;10.220;2023-05-08T06:52:58;102664.22;;;20.66;35.79
11395;BME280;5753;54.402;10.220;2023-05-08T06:55:24;102668.16;;;19.88;36.53
11395;BME280;5753;54.402;10.220;2023-05-08T06:57:50;102667.66;;;20.50;35.56
11395;BME280;5753;54.402;10.220;2023-05-08T07:00:16;102671.13;;;20.49;36.40
11395;BME280;5753;54.402;10.220;2023-05-08T07:02:42;102665.19;;;21.13;35.55
11395;BME280;5753;54.402;10.220;2023-05-08T07:05:08;102656.38;;;22.22;33.67
11395;BME280;5753;54.402;10.220;2023-05-08T07:07:35;102650.31;;;21.04;34.81
11395;BME280;5753;54.402;10.220;2023-05-08T07:10:01;102652.97;;;21.18;34.54
11395;BME280;5753;54.402;10.220;2023-05-08T07:12:27;102649.50;;;21.25;34.29
11395;BME280;5753;54.402;10.220;2023-05-08T07:14:53;102650.22;;;22.40;32.78
11395;BME280;5753;54.402;10.220;2023-05-08T07:17:19;102657.31;;;21.11;34.64
11395;BME280;5753;54.402;10.220;2023-05-08T07:19:49;102652.06;;;21.02;35.11
11395;BME280;5753;54.402;10.220;2023-05-08T07:22:16;102657.31;;;20.99;34.23
11395;BME280;5753;54.402;10.220;2023-05-08T07:24:42;102652.81;;;20.54;34.91
11395;BME280;5753;54.402;10.220;2023-05-08T07:27:08;102649.44;;;21.98;32.80
11395;BME280;5753;54.402;10.220;2023-05-08T07:29:34;102659.06;;;21.21;33.77
11395;BME280;5753;54.402;10.220;2023-05-08T07:32:01;102660.00;;;21.58;33.08
11395;BME280;5753;54.402;10.220;2023-05-08T07:34:27;102659.97;;;21.72;33.12
11395;BME280;5753;54.402;10.220;2023-05-08T07:36:53;102654.75;;;21.81;33.09
11395;BME280;5753;54.402;10.220;2023-05-08T07:39:20;102651.19;;;21.97;32.73
11395;BME280;5753;54.402;10.220;2023-05-08T07:41:47;102644.78;;;22.75;32.32
11395;BME280;5753;54.402;10.220;2023-05-08T07:44:13;102646.81;;;22.07;32.34
11395;BME280;5753;54.402;10.220;2023-05-08T07:46:39;102646.56;;;22.73;32.33
11395;BME280;5753;54.402;10.220;2023-05-08T07:49:05;102641.88;;;23.16;31.01
11395;BME280;5753;54.402;10.220;2023-05-08T07:51:31;102644.91;;;22.47;31.76
11395;BME280;5753;54.402;10.220;2023-05-08T07:53:58;102639.56;;;22.66;31.49
11395;BME280;5753;54.402;10.220;2023-05-08T07:56:24;102635.75;;;23.17;31.47
11395;BME280;5753;54.402;10.220;2023-05-08T07:58:50;102639.94;;;23.42;30.98
11395;BME280;5753;54.402;10.220;2023-05-08T08:01:16;102644.69;;;22.93;31.29
11395;BME280;5753;54.402;10.220;2023-05-08T08:03:46;102639.53;;;22.76;31.66
11395;BME280;5753;54.402;10.220;2023-05-08T08:06:13;102643.06;;;22.68;31.84
11395;BME280;5753;54.402;10.220;2023-05-08T08:08:39;102638.84;;;22.36;31.53
11395;BME280;5753;54.402;10.220;2023-05-08T08:11:06;102645.00;;;22.20;31.32
11395;BME280;5753;54.402;10.220;2023-05-08T08:13:32;102642.34;;;22.40;31.34
11395;BME280;5753;54.402;10.220;2023-05-08T08:15:59;102642.78;;;23.15;30.43
11395;BME280;5753;54.402;10.220;2023-05-08T08:18:25;102640.63;;;23.67;30.04
11395;BME280;5753;54.402;10.220;2023-05-08T08:20:51;102635.00;;;22.98;31.20
11395;BME280;5753;54.402;10.220;2023-05-08T08:23:17;102633.88;;;23.33;30.54
11395;BME280;5753;54.402;10.220;2023-05-08T08:25:43;102639.75;;;22.32;30.49
11395;BME280;5753;54.402;10.220;2023-05-08T08:28:09;102636.25;;;22.30;29.70
11395;BME280;5753;54.402;10.220;2023-05-08T08:30:35;102629.59;;;23.21;29.18
11395;BME280;5753;54.402;10.220;2023-05-08T08:33:01;102637.38;;;24.24;28.46
11395;BME280;5753;54.402;10.220;2023-05-08T08:35:28;102637.59;;;24.02;28.33
11395;BME280;5753;54.402;10.220;2023-05-08T08:37:58;102629.59;;;23.21;29.45
11395;BME280;5753;54.402;10.220;2023-05-08T08:40:24;102629.50;;;24.19;28.82
11395;BME280;5753;54.402;10.220;2023-05-08T08:42:50;102624.13;;;24.31;28.94
11395;BME280;5753;54.402;10.220;2023-05-08T08:45:16;102620.94;;;24.00;28.94
11395;BME280;5753;54.402;10.220;2023-05-08T08:47:44;102617.38;;;24.75;28.14
11395;BME280;5753;54.402;10.220;2023-05-08T08:50:13;102619.69;;;23.49;29.09
11395;BME280;5753;54.402;10.220;2023-05-08T08:52:46;102607.47;;;24.89;27.72
11395;BME280;5753;54.402;10.220;2023-05-08T08:55:17;102614.75;;;24.04;27.86
11395;BME280;5753;54.402;10.220;2023-05-08T09:00:29;102620.91;;;24.02;28.84
11395;BME280;5753;54.402;10.220;2023-05-08T09:02:57;102609.66;;;22.88;29.89
11395;BME280;5753;54.402;10.220;2023-05-08T09:05:23;102614.44;;;21.97;30.53
11395;BME280;5753;54.402;10.220;2023-05-08T09:07:53;102610.03;;;24.32;28.32
11395;BME280;5753;54.402;10.220;2023-05-08T09:10:21;102608.53;;;24.77;27.69
11395;BME280;5753;54.402;10.220;2023-05-08T09:12:48;102605.81;;;25.37;26.87
11395;BME280;5753;54.402;10.220;2023-05-08T09:15:14;102600.59;;;24.79;27.15
11395;BME280;5753;54.402;10.220;2023-05-08T09:17:40;102594.72;;;23.90;28.46
11395;BME280;5753;54.402;10.220;2023-05-08T09:20:07;102587.69;;;24.61;27.78
11395;BME280;5753;54.402;10.220;2023-05-08T09:22:35;102593.25;;;25.50;26.81
11395;BME280;5753;54.402;10.220;2023-05-08T09:25:02;102591.19;;;25.20;26.49
11395;BME280;5753;54.402;10.220;2023-05-08T09:27:30;102588.56;;;25.18;26.07
11395;BME280;5753;54.402;10.220;2023-05-08T09:30:06;102587.25;;;24.28;27.46
11395;BME280;5753;54.402;10.220;2023-05-08T09:32:34;102585.31;;;24.42;27.14
11395;BME280;5753;54.402;10.220;2023-05-08T09:35:01;102579.50;;;25.81;26.10
11395;BME280;5753;54.402;10.220;2023-05-08T09:37:28;102578.44;;;25.43;25.85
11395;BME280;5753;54.402;10.220;2023-05-08T09:40:12;102577.53;;;25.44;26.27
11395;BME280;5753;54.402;10.220;2023-05-08T09:42:47;102578.34;;;25.94;25.37
11395;BME280;5753;54.402;10.220;2023-05-08T09:45:28;102580.50;;;25.75;25.17
11395;BME280;5753;54.402;10.220;2023-05-08T09:47:54;102577.31;;;25.08;26.60
11395;BME280;5753;54.402;10.220;2023-05-08T09:50:20;102583.84;;;26.26;24.74
11395;BME280;5753;54.402;10.220;2023-05-08T09:52:48;102584.31;;;25.09;26.26
11395;BME280;5753;54.402;10.220;2023-05-08T09:55:15;102580.66;;;25.67;25.58
11395;BME280;5753;54.402;10.220;2023-05-08T09:57:56;102588.94;;;25.94;24.70
11395;BME280;5753;54.402;10.220;2023-05-08T10:00:27;102576.97;;;26.19;25.10
11395;BME280;5753;54.402;10.220;2023-05-08T10:03:01;102582.28;;;25.25;26.23
11395;BME280;5753;54.402;10.220;2023-05-08T10:05:32;102573.84;;;25.99;26.23
11395;BME280;5753;54.402;10.220;2023-05-08T10:08:20;102571.88;;;26.87;24.24
11395;BME280;5753;54.402;10.220;2023-05-08T10:10:46;102572.81;;;26.49;24.62
11395;BME280;5753;54.402;10.220;2023-05-08T10:13:13;102575.22;;;26.18;25.25
11395;BME280;5753;54.402;10.220;2023-05-08T10:15:42;102568.97;;;26.22;24.43
11395;BME280;5753;54.402;10.220;2023-05-08T10:18:09;102578.03;;;26.11;24.89
11395;BME280;5753;54.402;10.220;2023-05-08T10:20:41;102581.41;;;26.59;24.52
11395;BME280;5753;54.402;10.220;2023-05-08T10:23:13;102572.19;;;27.12;23.88
11395;BME280;5753;54.402;10.220;2023-05-08T10:25:54;102559.81;;;27.78;23.00
11395;BME280;5753;54.402;10.220;2023-05-08T10:31:12;102554.16;;;26.14;24.66
11395;BME280;5753;54.402;10.220;2023-05-08T10:33:40;102546.00;;;25.83;25.08
11395;BME280;5753;54.402;10.220;2023-05-08T10:36:09;102556.66;;;26.95;23.47
11395;BME280;5753;54.402;10.220;2023-05-08T10:38:37;102549.72;;;27.61;23.28
11395;BME280;5753;54.402;10.220;2023-05-08T10:41:05;102554.25;;;26.51;23.66
11395;BME280;5753;54.402;10.220;2023-05-08T10:43:31;102555.69;;;25.82;24.34
11395;BME280;5753;54.402;10.220;2023-05-08T10:46:04;102548.31;;;27.14;22.80
11395;BME280;5753;54.402;10.220;2023-05-08T10:53:56;102540.84;;;27.60;22.12
11395;BME280;5753;54.402;10.220;2023-05-08T10:56:27;102538.53;;;27.81;22.20
11395;BME280;5753;54.402;10.220;2023-05-08T10:58:57;102535.28;;;27.71;22.17
11395;BME280;5753;54.402;10.220;2023-05-08T11:01:24;102522.63;;;28.40;21.59
11395;BME280;5753;54.402;10.220;2023-05-08T11:03:51;102531.00;;;28.80;21.50
11395;BME280;5753;54.402;10.220;2023-05-08T11:06:40;102529.75;;;28.66;21.58
11395;BME280;5753;54.402;10.220;2023-05-08T11:09:04;102539.47;;;28.93;21.29
11395;BME280;5753;54.402;10.220;2023-05-08T11:11:31;102546.56;;;27.78;22.09
11395;BME280;5753;54.402;10.220;2023-05-08T11:14:09;102541.56;;;28.28;21.17
11395;BME280;5753;54.402;10.220;2023-05-08T11:19:27;102531.41;;;29.21;21.66
11395;BME280;5753;54.402;10.220;2023-05-08T11:24:39;102522.19;;;29.81;19.81
11395;BME280;5753;54.402;10.220;2023-05-08T11:27:06;102522.34;;;29.02;20.30
11395;BME280;5753;54.402;10.220;2023-05-08T11:29:32;102515.81;;;30.08;19.98
11395;BME280;5753;54.402;10.220;2023-05-08T11:31:58;102523.50;;;29.20;20.65
11395;BME280;5753;54.402;10.220;2023-05-08T11:37:17;102512.47;;;30.03;19.45
11395;BME280;5753;54.402;10.220;2023-05-08T11:39:44;102505.06;;;29.15;20.71
11395;BME280;5753;54.402;10.220;2023-05-08T11:45:08;102506.66;;;28.96;20.57
11395;BME280;5753;54.402;10.220;2023-05-08T11:47:44;102512.09;;;30.56;19.89
11395;BME280;5753;54.402;10.220;2023-05-08T11:50:11;102501.84;;;29.30;21.00
11395;BME280;5753;54.402;10.220;2023-05-08T11:52:40;102497.13;;;27.46;21.75
11395;BME280;5753;54.402;10.220;2023-05-08T11:55:10;102502.69;;;28.55;21.48
11395;BME280;5753;54.402;10.220;2023-05-08T11:57:37;102486.84;;;28.78;20.62
11395;BME280;5753;54.402;10.220;2023-05-08T12:00:08;102487.84;;;29.02;21.43
11395;BME280;5753;54.402;10.220;2023-05-08T12:02:41;102493.00;;;30.01;19.60
11395;BME280;5753;54.402;10.220;2023-05-08T12:05:09;102488.72;;;30.21;19.14
11395;BME280;5753;54.402;10.220;2023-05-08T12:07:42;102481.34;;;31.12;19.10
11395;BME280;5753;54.402;10.220;2023-05-08T12:10:12;102487.13;;;32.72;17.68
11395;BME280;5753;54.402;10.220;2023-05-08T12:12:40;102481.25;;;31.13;17.77
11395;BME280;5753;54.402;10.220;2023-05-08T12:15:11;102488.47;;;32.27;17.29
11395;BME280;5753;54.402;10.220;2023-05-08T12:17:37;102488.69;;;32.76;16.60
11395;BME280;5753;54.402;10.220;2023-05-08T12:20:15;102487.00;;;32.39;16.76
11395;BME280;5753;54.402;10.220;2023-05-08T12:22:43;102496.22;;;34.17;16.51
11395;BME280;5753;54.402;10.220;2023-05-08T12:25:16;102480.88;;;35.11;15.21
11395;BME280;5753;54.402;10.220;2023-05-08T12:27:43;102466.47;;;32.22;15.93
11395;BME280;5753;54.402;10.220;2023-05-08T12:30:11;102486.31;;;32.52;17.73
11395;BME280;5753;54.402;10.220;2023-05-08T12:32:40;102486.22;;;33.89;15.55
11395;BME280;5753;54.402;10.220;2023-05-08T12:35:11;102485.28;;;33.57;15.69
11395;BME280;5753;54.402;10.220;2023-05-08T12:37:38;102489.81;;;36.09;14.97
11395;BME280;5753;54.402;10.220;2023-05-08T12:40:05;102483.56;;;35.39;14.50
11395;BME280;5753;54.402;10.220;2023-05-08T12:42:47;102474.94;;;38.08;12.95
11395;BME280;5753;54.402;10.220;2023-05-08T12:45:20;102477.56;;;35.91;14.50
11395;BME280;5753;54.402;10.220;2023-05-08T12:47:48;102476.94;;;37.06;13.36
11395;BME280;5753;54.402;10.220;2023-05-08T12:50:16;102478.03;;;37.42;13.93
11395;BME280;5753;54.402;10.220;2023-05-08T12:52:43;102478.16;;;38.72;12.34
11395;BME280;5753;54.402;10.220;2023-05-08T12:55:25;102467.44;;;38.25;13.14
11395;BME280;5753;54.402;10.220;2023-05-08T12:58:11;102469.63;;;37.08;13.75
11395;BME280;5753;54.402;10.220;2023-05-08T13:00:42;102462.75;;;37.42;13.52
11395;BME280;5753;54.402;10.220;2023-05-08T13:03:10;102459.47;;;37.99;13.40
11395;BME280;5753;54.402;10.220;2023-05-08T13:05:40;102460.38;;;37.87;13.22
11395;BME280;5753;54.402;10.220;2023-05-08T13:08:07;102444.00;;;33.94;15.24
11395;BME280;5753;54.402;10.220;2023-05-08T13:10:53;102445.47;;;35.89;13.99
11395;BME280;5753;54.402;10.220;2023-05-08T13:13:23;102433.69;;;36.58;14.15
11395;BME280;5753;54.402;10.220;2023-05-08T13:15:51;102430.03;;;38.33;12.77
11395;BME280;5753;54.402;10.220;2023-05-08T13:18:19;102433.16;;;38.27;12.75
11395;BME280;5753;54.402;10.220;2023-05-08T13:20:45;102417.38;;;38.68;12.79
11395;BME280;5753;54.402;10.220;2023-05-08T13:23:12;102414.28;;;38.16;12.77
11395;BME280;5753;54.402;10.220;2023-05-08T13:25:39;102409.59;;;38.53;12.37
11395;BME280;5753;54.402;10.220;2023-05-08T13:28:07;102400.25;;;38.34;12.83
11395;BME280;5753;54.402;10.220;2023-05-08T13:30:34;102417.78;;;38.40;12.79
11395;BME280;5753;54.402;10.220;2023-05-08T13:33:00;102395.97;;;38.08;12.75
11395;BME280;5753;54.402;10.220;2023-05-08T13:35:27;102401.78;;;40.05;11.93
11395;BME280;5753;54.402;10.220;2023-05-08T13:37:54;102402.72;;;39.17;12.29
11395;BME280;5753;54.402;10.220;2023-05-08T13:40:20;102404.94;;;37.48;12.72
11395;BME280;5753;54.402;10.220;2023-05-08T13:42:46;102408.56;;;38.31;13.28
11395;BME280;5753;54.402;10.220;2023-05-08T13:45:13;102415.75;;;38.20;12.91